Salem, MA

4:25 AM EST on December 08, 2016 (GMT -0500)
Essex St. near North St. | | Change Station

Elev 184 ft 42.52 °N, 70.90 °W | Updated 13 minutes ago

Partly Cloudy
Partly Cloudy
35.8 °F
Feels Like 36 °F
N
3.0
Wind Variable Wind from West
Gusts 7.0 mph

Today
High -- | Low -- °F
--% Chance of Precip.
Yesterday
High -- | Low -- °F
Precip. -- in
Pressure 29.93 in
Visibility 6.0 miles
Clouds Scattered Clouds 12000 ft
Windchill 36 °F
Dew Point 31 °F
Humidity 84%
Rainfall 0.00 in
Snow Depth Not available.
7:01 AM 4:10 PM
First Quarter, 61% visible
METAR KBVY 080853Z AUTO 24003KT 6SM BR SCT120 00/00 A2994 RMK AO2 SLP134 I3002 T00000000 58009
Pressure 29.93 in
Visibility 6.0 miles
Clouds Scattered Clouds 12000 ft
Windchill 36 °F
Dew Point 31 °F
Humidity 84%
Rainfall 0.00 in
Snow Depth Not available.
7:01 AM 4:10 PM
First Quarter, 61% visible
METAR KBVY 080853Z AUTO 24003KT 6SM BR SCT120 00/00 A2994 RMK AO2 SLP134 I3002 T00000000 58009

10-Day Weather Forecast

Almanac

Astronomy

Dec. 08, 2016 Rise Set
Actual Time
Civil Twilight
Nautical Twilight
Astronomical Twilight
Moon
Length of Visible Light
Length of Day
Tomorrow will be .
, % of the Moon is Illuminated

Today's Extremes

State Highs State Lows

Community

WunderPhotos

Upload Photos

1,956,259 photos uploaded!

WunderBlog® & News

Nearby

Air Quality

  Air Quality AQ Index Pollutant
Not available.

Snow Depth

Station Depth Elevation

Earthquake Activity

City Distance Mag. Time & Date
Minimum magnitude displayed is 2.5.

Coastal Water Temperatures

Place Temperature

Stations

Nearby Weather Stations

Station Location Temp. Windchill Dew Point Humidity Wind Precip. Elev Updated Type
                   

Watches & Warnings

There are currently no watches in effect.